sensor_id;sensor_type;location;lat;lon;timestamp;pressure;altitude;pressure_sealevel;temperature;humidity
46111;BME280;31849;55.992;37.252;2022-12-07T00:04:28;100185.72;;;-7.50;44.56
46111;BME280;31849;55.992;37.252;2022-12-07T00:09:32;100185.22;;;-7.36;44.65
46111;BME280;31849;55.992;37.252;2022-12-07T00:14:35;100181.97;;;-7.45;43.93
46111;BME280;31849;55.992;37.252;2022-12-07T00:19:40;100190.91;;;-7.49;44.35
46111;BME280;31849;55.992;37.252;2022-12-07T00:24:44;100185.97;;;-7.47;44.59
46111;BME280;31849;55.992;37.252;2022-12-07T00:29:47;100185.97;;;-7.47;44.65
46111;BME280;31849;55.992;37.252;2022-12-07T00:34:52;100183.97;;;-7.72;45.00
46111;BME280;31849;55.992;37.252;2022-12-07T00:39:56;100198.00;;;-7.75;44.65
46111;BME280;31849;55.992;37.252;2022-12-07T00:44:59;100190.31;;;-7.67;44.80
46111;BME280;31849;55.992;37.252;2022-12-07T00:50:06;100195.59;;;-7.64;44.66
46111;BME280;31849;55.992;37.252;2022-12-07T00:55:10;100183.22;;;-7.71;45.05
46111;BME280;31849;55.992;37.252;2022-12-07T01:00:14;100184.50;;;-7.66;44.73
46111;BME280;31849;55.992;37.252;2022-12-07T01:05:19;100179.69;;;-7.63;44.76
46111;BME280;31849;55.992;37.252;2022-12-07T01:10:23;100187.91;;;-7.55;44.66
46111;BME280;31849;55.992;37.252;2022-12-07T01:15:26;100182.34;;;-7.61;44.99
46111;BME280;31849;55.992;37.252;2022-12-07T01:20:31;100188.75;;;-7.54;44.82
46111;BME280;31849;55.992;37.252;2022-12-07T01:25:35;100175.78;;;-7.59;45.25
46111;BME280;31849;55.992;37.252;2022-12-07T01:30:39;100175.16;;;-7.67;44.41
46111;BME280;31849;55.992;37.252;2022-12-07T01:35:44;100179.84;;;-7.82;44.82
46111;BME280;31849;55.992;37.252;2022-12-07T01:40:54;100139.22;;;-8.05;44.51
46111;BME280;31849;55.992;37.252;2022-12-07T01:45:58;100172.16;;;-7.93;45.25
46111;BME280;31849;55.992;37.252;2022-12-07T01:51:05;100174.16;;;-8.10;44.89
46111;BME280;31849;55.992;37.252;2022-12-07T01:56:13;100175.28;;;-8.06;45.66
46111;BME280;31849;55.992;37.252;2022-12-07T02:01:19;100156.38;;;-8.22;45.50
46111;BME280;31849;55.992;37.252;2022-12-07T02:06:25;100172.38;;;-8.21;45.07
46111;BME280;31849;55.992;37.252;2022-12-07T02:11:29;100167.94;;;-8.24;46.09
46111;BME280;31849;55.992;37.252;2022-12-07T02:16:38;100162.66;;;-8.27;46.02
46111;BME280;31849;55.992;37.252;2022-12-07T02:21:51;100163.56;;;-8.26;45.48
46111;BME280;31849;55.992;37.252;2022-12-07T02:27:11;100159.50;;;-8.35;45.37
46111;BME280;31849;55.992;37.252;2022-12-07T02:32:26;100159.00;;;-8.41;46.38
46111;BME280;31849;55.992;37.252;2022-12-07T02:37:36;100158.50;;;-8.37;46.14
46111;BME280;31849;55.992;37.252;2022-12-07T02:42:46;100151.19;;;-8.34;46.32
46111;BME280;31849;55.992;37.252;2022-12-07T02:47:53;100153.47;;;-8.47;45.81
46111;BME280;31849;55.992;37.252;2022-12-07T02:53:00;100160.91;;;-8.49;45.80
46111;BME280;31849;55.992;37.252;2022-12-07T02:58:20;100145.63;;;-8.60;46.04
46111;BME280;31849;55.992;37.252;2022-12-07T03:03:28;100137.31;;;-8.59;46.14
46111;BME280;31849;55.992;37.252;2022-12-07T03:08:51;100154.56;;;-8.64;46.30
46111;BME280;31849;55.992;37.252;2022-12-07T03:14:00;100159.84;;;-8.71;46.06
46111;BME280;31849;55.992;37.252;2022-12-07T03:19:10;100158.16;;;-8.91;46.39
46111;BME280;31849;55.992;37.252;2022-12-07T03:24:19;100151.84;;;-8.96;46.69
46111;BME280;31849;55.992;37.252;2022-12-07T03:29:26;100152.53;;;-9.08;46.88
46111;BME280;31849;55.992;37.252;2022-12-07T03:34:34;100150.63;;;-9.10;46.80
46111;BME280;31849;55.992;37.252;2022-12-07T03:39:41;100154.81;;;-9.11;47.38
46111;BME280;31849;55.992;37.252;2022-12-07T03:44:48;100147.72;;;-9.15;47.56
46111;BME280;31849;55.992;37.252;2022-12-07T03:49:55;100144.63;;;-9.31;48.18
46111;BME280;31849;55.992;37.252;2022-12-07T03:55:06;100145.38;;;-9.32;48.09
46111;BME280;31849;55.992;37.252;2022-12-07T04:00:12;100146.69;;;-9.46;47.79
46111;BME280;31849;55.992;37.252;2022-12-07T04:05:18;100134.50;;;-9.42;48.15
46111;BME280;31849;55.992;37.252;2022-12-07T04:10:21;100124.50;;;-9.50;48.33
46111;BME280;31849;55.992;37.252;2022-12-07T04:15:24;100125.81;;;-9.45;48.50
46111;BME280;31849;55.992;37.252;2022-12-07T04:20:29;100127.63;;;-9.53;47.87
46111;BME280;31849;55.992;37.252;2022-12-07T04:25:33;100135.56;;;-9.59;48.49
46111;BME280;31849;55.992;37.252;2022-12-07T04:30:36;100122.47;;;-9.55;48.43
46111;BME280;31849;55.992;37.252;2022-12-07T04:35:42;100126.91;;;-9.52;48.04
46111;BME280;31849;55.992;37.252;2022-12-07T04:40:45;100130.44;;;-9.50;48.58
46111;BME280;31849;55.992;37.252;2022-12-07T04:45:49;100122.72;;;-9.51;48.51
46111;BME280;31849;55.992;37.252;2022-12-07T04:50:55;100121.78;;;-9.43;48.84
46111;BME280;31849;55.992;37.252;2022-12-07T04:55:58;100123.78;;;-9.49;49.53
46111;BME280;31849;55.992;37.252;2022-12-07T05:01:02;100136.56;;;-9.57;49.33
46111;BME280;31849;55.992;37.252;2022-12-07T05:06:08;100131.94;;;-9.52;49.43
46111;BME280;31849;55.992;37.252;2022-12-07T05:11:15;100123.81;;;-9.39;49.23
46111;BME280;31849;55.992;37.252;2022-12-07T05:16:32;100126.94;;;-9.42;49.19
46111;BME280;31849;55.992;37.252;2022-12-07T05:21:38;100134.03;;;-9.38;49.37
46111;BME280;31849;55.992;37.252;2022-12-07T05:26:42;100133.03;;;-9.29;49.91
46111;BME280;31849;55.992;37.252;2022-12-07T05:31:46;100128.44;;;-9.25;49.77
46111;BME280;31849;55.992;37.252;2022-12-07T05:36:51;100120.63;;;-9.17;49.39
46111;BME280;31849;55.992;37.252;2022-12-07T05:41:55;100118.78;;;-9.10;49.55
46111;BME280;31849;55.992;37.252;2022-12-07T05:47:16;100125.31;;;-9.12;49.70
46111;BME280;31849;55.992;37.252;2022-12-07T05:52:22;100102.16;;;-9.08;49.92
46111;BME280;31849;55.992;37.252;2022-12-07T05:57:25;100124.50;;;-8.92;49.25
46111;BME280;31849;55.992;37.252;2022-12-07T06:02:29;100121.75;;;-8.85;49.59
46111;BME280;31849;55.992;37.252;2022-12-07T06:07:34;100119.84;;;-8.87;50.26
46111;BME280;31849;55.992;37.252;2022-12-07T06:12:37;100100.06;;;-8.82;49.75
46111;BME280;31849;55.992;37.252;2022-12-07T06:17:44;100095.56;;;-8.76;50.46
46111;BME280;31849;55.992;37.252;2022-12-07T06:23:01;100103.25;;;-8.64;50.73
46111;BME280;31849;55.992;37.252;2022-12-07T06:28:05;100103.91;;;-8.46;50.34
46111;BME280;31849;55.992;37.252;2022-12-07T06:33:08;100098.84;;;-8.26;49.53
46111;BME280;31849;55.992;37.252;2022-12-07T06:38:13;100087.78;;;-4.90;45.13
46111;BME280;31849;55.992;37.252;2022-12-07T06:43:17;100083.22;;;-1.53;39.87
46111;BME280;31849;55.992;37.252;2022-12-07T06:48:20;100073.78;;;1.17;36.73
46111;BME280;31849;55.992;37.252;2022-12-07T06:53:25;100067.31;;;2.26;32.96
46111;BME280;31849;55.992;37.252;2022-12-07T06:58:29;100071.69;;;3.40;32.33
46111;BME280;31849;55.992;37.252;2022-12-07T07:03:32;100068.56;;;3.73;31.88
46111;BME280;31849;55.992;37.252;2022-12-07T07:08:37;100074.44;;;3.95;29.63
46111;BME280;31849;55.992;37.252;2022-12-07T07:13:41;100063.88;;;4.38;29.65
46111;BME280;31849;55.992;37.252;2022-12-07T07:18:45;100073.84;;;5.43;29.39
46111;BME280;31849;55.992;37.252;2022-12-07T07:23:50;100073.06;;;6.08;27.93
46111;BME280;31849;55.992;37.252;2022-12-07T07:28:53;100074.63;;;6.03;27.98
46111;BME280;31849;55.992;37.252;2022-12-07T07:33:57;100068.78;;;6.81;26.77
46111;BME280;31849;55.992;37.252;2022-12-07T07:39:02;100069.72;;;7.25;25.51
46111;BME280;31849;55.992;37.252;2022-12-07T07:44:07;100057.78;;;6.52;26.12
46111;BME280;31849;55.992;37.252;2022-12-07T07:49:11;100045.19;;;7.48;26.11
46111;BME280;31849;55.992;37.252;2022-12-07T07:54:16;100038.88;;;7.35;25.12
46111;BME280;31849;55.992;37.252;2022-12-07T07:59:19;100041.31;;;6.48;24.25
46111;BME280;31849;55.992;37.252;2022-12-07T08:04:22;100031.31;;;7.46;25.50
46111;BME280;31849;55.992;37.252;2022-12-07T08:09:27;100039.16;;;7.97;23.81
46111;BME280;31849;55.992;37.252;2022-12-07T08:14:31;100033.84;;;6.59;24.86
46111;BME280;31849;55.992;37.252;2022-12-07T08:19:35;100028.50;;;5.83;26.31
46111;BME280;31849;55.992;37.252;2022-12-07T08:24:40;100028.38;;;4.84;25.90
46111;BME280;31849;55.992;37.252;2022-12-07T08:29:44;100026.19;;;3.87;25.74
46111;BME280;31849;55.992;37.252;2022-12-07T08:34:47;100013.81;;;3.03;27.78
46111;BME280;31849;55.992;37.252;2022-12-07T08:39:53;100006.94;;;1.92;29.57
46111;BME280;31849;55.992;37.252;2022-12-07T08:44:57;100019.09;;;0.59;29.99
46111;BME280;31849;55.992;37.252;2022-12-07T08:50:01;100013.88;;;-0.65;31.73
46111;BME280;31849;55.992;37.252;2022-12-07T08:55:09;100014.72;;;-1.62;33.44
46111;BME280;31849;55.992;37.252;2022-12-07T09:00:15;100003.34;;;-3.02;36.05
46111;BME280;31849;55.992;37.252;2022-12-07T09:05:19;99998.66;;;-4.31;38.13
46111;BME280;31849;55.992;37.252;2022-12-07T09:10:23;99994.78;;;-4.39;38.13
46111;BME280;31849;55.992;37.252;2022-12-07T09:15:27;99996.03;;;-4.71;39.56
46111;BME280;31849;55.992;37.252;2022-12-07T09:20:31;100008.34;;;-5.14;40.50
46111;BME280;31849;55.992;37.252;2022-12-07T09:25:37;99992.69;;;-5.08;39.70
46111;BME280;31849;55.992;37.252;2022-12-07T09:30:44;99986.75;;;-5.09;40.97
46111;BME280;31849;55.992;37.252;2022-12-07T09:36:08;99980.38;;;-5.16;40.82
46111;BME280;31849;55.992;37.252;2022-12-07T09:41:13;99990.91;;;-5.47;41.68
46111;BME280;31849;55.992;37.252;2022-12-07T09:46:19;99974.34;;;-5.30;40.51
46111;BME280;31849;55.992;37.252;2022-12-07T09:51:24;99979.28;;;-5.19;40.91
46111;BME280;31849;55.992;37.252;2022-12-07T09:56:30;99980.44;;;-5.39;40.92
46111;BME280;31849;55.992;37.252;2022-12-07T10:01:34;99989.28;;;-5.46;41.42
46111;BME280;31849;55.992;37.252;2022-12-07T10:06:38;99973.88;;;-5.61;41.87
46111;BME280;31849;55.992;37.252;2022-12-07T10:12:02;99975.22;;;-5.66;42.30
46111;BME280;31849;55.992;37.252;2022-12-07T10:17:29;99966.19;;;-5.62;42.30
46111;BME280;31849;55.992;37.252;2022-12-07T10:22:33;99972.81;;;-5.88;42.65
46111;BME280;31849;55.992;37.252;2022-12-07T10:27:38;99956.19;;;-5.85;42.67
46111;BME280;31849;55.992;37.252;2022-12-07T10:32:42;99960.47;;;-5.84;43.11
46111;BME280;31849;55.992;37.252;2022-12-07T10:37:45;99951.56;;;-5.90;43.19
46111;BME280;31849;55.992;37.252;2022-12-07T10:43:00;99962.41;;;-6.05;43.47
46111;BME280;31849;55.992;37.252;2022-12-07T10:48:08;99959.66;;;-6.08;43.50
46111;BME280;31849;55.992;37.252;2022-12-07T10:53:27;99947.19;;;-6.05;43.47
46111;BME280;31849;55.992;37.252;2022-12-07T10:58:49;99944.69;;;-6.16;43.28
46111;BME280;31849;55.992;37.252;2022-12-07T11:04:24;99932.03;;;-6.16;43.49
46111;BME280;31849;55.992;37.252;2022-12-07T11:09:59;99929.69;;;-6.49;43.47
46111;BME280;31849;55.992;37.252;2022-12-07T11:15:24;99924.22;;;-6.31;44.14
46111;BME280;31849;55.992;37.252;2022-12-07T11:20:43;99925.88;;;-6.44;43.93
46111;BME280;31849;55.992;37.252;2022-12-07T11:25:53;99918.59;;;-6.27;43.42
46111;BME280;31849;55.992;37.252;2022-12-07T11:31:10;99911.22;;;-6.12;43.31
46111;BME280;31849;55.992;37.252;2022-12-07T11:36:29;99910.91;;;-6.52;43.77
46111;BME280;31849;55.992;37.252;2022-12-07T11:41:35;99909.78;;;-6.32;43.62
46111;BME280;31849;55.992;37.252;2022-12-07T11:46:47;99898.69;;;-6.58;44.43
46111;BME280;31849;55.992;37.252;2022-12-07T11:51:57;99897.91;;;-6.69;44.65
46111;BME280;31849;55.992;37.252;2022-12-07T11:57:03;99873.06;;;-6.75;44.80
46111;BME280;31849;55.992;37.252;2022-12-07T12:02:21;99870.41;;;-6.64;44.19
46111;BME280;31849;55.992;37.252;2022-12-07T12:07:27;99876.78;;;-6.69;44.73
46111;BME280;31849;55.992;37.252;2022-12-07T12:13:20;99857.88;;;-6.63;44.21
46111;BME280;31849;55.992;37.252;2022-12-07T12:18:53;99864.34;;;-6.90;45.13
46111;BME280;31849;55.992;37.252;2022-12-07T12:24:04;99871.09;;;-7.13;46.56
46111;BME280;31849;55.992;37.252;2022-12-07T12:29:21;99857.47;;;-7.27;47.00
46111;BME280;31849;55.992;37.252;2022-12-07T12:34:33;99868.91;;;-7.54;47.22
46111;BME280;31849;55.992;37.252;2022-12-07T12:45:27;99861.16;;;-7.45;47.00
46111;BME280;31849;55.992;37.252;2022-12-07T12:50:34;99868.47;;;-7.48;47.23
46111;BME280;31849;55.992;37.252;2022-12-07T13:01:42;99854.22;;;-8.14;50.15
46111;BME280;31849;55.992;37.252;2022-12-07T13:06:47;99858.59;;;-8.01;49.63
46111;BME280;31849;55.992;37.252;2022-12-07T13:11:58;99858.31;;;-8.26;49.80
46111;BME280;31849;55.992;37.252;2022-12-07T13:17:04;99853.59;;;-8.11;48.91
46111;BME280;31849;55.992;37.252;2022-12-07T13:22:38;99845.59;;;-8.28;50.44
46111;BME280;31849;55.992;37.252;2022-12-07T13:27:45;99839.25;;;-8.23;49.53
46111;BME280;31849;55.992;37.252;2022-12-07T13:32:54;99844.69;;;-8.28;50.29
46111;BME280;31849;55.992;37.252;2022-12-07T13:38:02;99845.97;;;-8.56;51.82
46111;BME280;31849;55.992;37.252;2022-12-07T13:43:14;99839.25;;;-8.55;51.11
46111;BME280;31849;55.992;37.252;2022-12-07T13:48:22;99848.91;;;-8.39;50.45
46111;BME280;31849;55.992;37.252;2022-12-07T13:53:30;99838.03;;;-8.60;51.42
46111;BME280;31849;55.992;37.252;2022-12-07T13:58:33;99831.31;;;-8.50;51.07
46111;BME280;31849;55.992;37.252;2022-12-07T14:03:37;99845.19;;;-8.44;51.88
46111;BME280;31849;55.992;37.252;2022-12-07T14:08:42;99831.81;;;-8.54;51.38
46111;BME280;31849;55.992;37.252;2022-12-07T14:13:56;99841.97;;;-8.74;52.41
46111;BME280;31849;55.992;37.252;2022-12-07T14:19:04;99834.69;;;-8.49;52.09
46111;BME280;31849;55.992;37.252;2022-12-07T14:24:16;99841.59;;;-8.79;52.52
46111;BME280;31849;55.992;37.252;2022-12-07T14:29:22;99827.13;;;-8.81;52.84
46111;BME280;31849;55.992;37.252;2022-12-07T14:34:31;99817.91;;;-8.71;52.19
46111;BME280;31849;55.992;37.252;2022-12-07T14:39:36;99830.94;;;-8.97;53.28
46111;BME280;31849;55.992;37.252;2022-12-07T14:44:40;99829.56;;;-8.93;53.50
46111;BME280;31849;55.992;37.252;2022-12-07T14:49:43;99833.59;;;-9.06;54.28
46111;BME280;31849;55.992;37.252;2022-12-07T14:54:48;99821.09;;;-9.04;54.04
46111;BME280;31849;55.992;37.252;2022-12-07T14:59:52;99826.78;;;-8.96;54.14
46111;BME280;31849;55.992;37.252;2022-12-07T15:04:55;99811.16;;;-9.03;54.30
46111;BME280;31849;55.992;37.252;2022-12-07T15:10:00;99814.28;;;-8.85;53.09
46111;BME280;31849;55.992;37.252;2022-12-07T15:15:05;99809.19;;;-9.17;54.43
46111;BME280;31849;55.992;37.252;2022-12-07T15:20:11;99811.69;;;-9.07;53.82
46111;BME280;31849;55.992;37.252;2022-12-07T15:25:17;99805.88;;;-9.06;54.08
46111;BME280;31849;55.992;37.252;2022-12-07T15:30:20;99796.31;;;-8.99;53.38
46111;BME280;31849;55.992;37.252;2022-12-07T15:35:24;99798.81;;;-8.99;53.80
46111;BME280;31849;55.992;37.252;2022-12-07T15:40:29;99794.81;;;-9.18;54.68
46111;BME280;31849;55.992;37.252;2022-12-07T15:45:33;99780.47;;;-9.29;54.62
46111;BME280;31849;55.992;37.252;2022-12-07T15:50:37;99781.47;;;-9.27;54.67
46111;BME280;31849;55.992;37.252;2022-12-07T15:55:41;99782.34;;;-9.27;55.69
46111;BME280;31849;55.992;37.252;2022-12-07T16:00:45;99790.78;;;-9.26;55.04
46111;BME280;31849;55.992;37.252;2022-12-07T16:05:50;99788.25;;;-9.16;54.74
46111;BME280;31849;55.992;37.252;2022-12-07T16:10:55;99781.97;;;-9.21;55.31
46111;BME280;31849;55.992;37.252;2022-12-07T16:16:02;99781.09;;;-8.79;54.63
46111;BME280;31849;55.992;37.252;2022-12-07T16:21:06;99783.97;;;-9.07;54.96
46111;BME280;31849;55.992;37.252;2022-12-07T16:26:12;99789.66;;;-9.20;55.66
46111;BME280;31849;55.992;37.252;2022-12-07T16:31:18;99784.34;;;-9.12;55.47
46111;BME280;31849;55.992;37.252;2022-12-07T16:36:23;99766.59;;;-9.14;55.63
46111;BME280;31849;55.992;37.252;2022-12-07T16:41:49;99782.81;;;-9.10;55.83
46111;BME280;31849;55.992;37.252;2022-12-07T16:46:52;99774.28;;;-9.23;56.16
46111;BME280;31849;55.992;37.252;2022-12-07T16:51:56;99780.31;;;-9.21;55.53
46111;BME280;31849;55.992;37.252;2022-12-07T16:57:21;99765.06;;;-9.12;56.23
46111;BME280;31849;55.992;37.252;2022-12-07T17:02:25;99763.16;;;-9.04;55.66
46111;BME280;31849;55.992;37.252;2022-12-07T17:07:28;99763.16;;;-9.04;55.93
46111;BME280;31849;55.992;37.252;2022-12-07T17:12:33;99766.84;;;-9.11;55.92
46111;BME280;31849;55.992;37.252;2022-12-07T17:17:36;99764.09;;;-9.14;56.31
46111;BME280;31849;55.992;37.252;2022-12-07T17:22:40;99764.75;;;-9.37;57.79
46111;BME280;31849;55.992;37.252;2022-12-07T17:27:46;99745.44;;;-9.26;57.44
46111;BME280;31849;55.992;37.252;2022-12-07T17:32:51;99748.25;;;-9.23;57.43
46111;BME280;31849;55.992;37.252;2022-12-07T17:37:54;99741.22;;;-9.38;58.42
46111;BME280;31849;55.992;37.252;2022-12-07T17:42:59;99740.59;;;-9.35;58.89
46111;BME280;31849;55.992;37.252;2022-12-07T17:48:03;99744.97;;;-9.43;58.21
46111;BME280;31849;55.992;37.252;2022-12-07T17:53:09;99733.50;;;-9.18;57.37
46111;BME280;31849;55.992;37.252;2022-12-07T17:58:14;99737.03;;;-9.27;57.36
46111;BME280;31849;55.992;37.252;2022-12-07T18:03:18;99740.81;;;-9.32;58.18
46111;BME280;31849;55.992;37.252;2022-12-07T18:08:21;99722.28;;;-9.32;57.94
46111;BME280;31849;55.992;37.252;2022-12-07T18:13:26;99733.50;;;-9.29;58.07
46111;BME280;31849;55.992;37.252;2022-12-07T18:18:39;99730.88;;;-9.30;58.29
46111;BME280;31849;55.992;37.252;2022-12-07T18:23:49;99739.06;;;-9.33;58.77
46111;BME280;31849;55.992;37.252;2022-12-07T18:28:55;99725.03;;;-9.19;57.85
46111;BME280;31849;55.992;37.252;2022-12-07T18:34:02;99720.13;;;-9.17;58.57
46111;BME280;31849;55.992;37.252;2022-12-07T18:39:06;99729.66;;;-9.03;57.90
46111;BME280;31849;55.992;37.252;2022-12-07T18:44:11;99713.34;;;-9.18;58.71
46111;BME280;31849;55.992;37.252;2022-12-07T18:49:15;99721.66;;;-9.20;58.98
46111;BME280;31849;55.992;37.252;2022-12-07T18:54:18;99729.34;;;-9.28;58.97
46111;BME280;31849;55.992;37.252;2022-12-07T18:59:23;99714.19;;;-9.08;58.29
46111;BME280;31849;55.992;37.252;2022-12-07T19:04:49;99705.22;;;-9.04;57.75
46111;BME280;31849;55.992;37.252;2022-12-07T19:09:53;99707.72;;;-9.04;57.70
46111;BME280;31849;55.992;37.252;2022-12-07T19:14:58;99702.34;;;-9.09;58.87
46111;BME280;31849;55.992;37.252;2022-12-07T19:20:08;99688.91;;;-9.20;58.17
46111;BME280;31849;55.992;37.252;2022-12-07T19:25:12;99692.03;;;-9.12;58.76
46111;BME280;31849;55.992;37.252;2022-12-07T19:30:18;99678.69;;;-9.11;59.18
46111;BME280;31849;55.992;37.252;2022-12-07T19:35:21;99697.19;;;-9.10;58.71
46111;BME280;31849;55.992;37.252;2022-12-07T19:40:25;99683.09;;;-9.08;59.13
46111;BME280;31849;55.992;37.252;2022-12-07T19:45:29;99693.53;;;-9.04;58.65
46111;BME280;31849;55.992;37.252;2022-12-07T19:50:35;99678.06;;;-9.08;59.04
46111;BME280;31849;55.992;37.252;2022-12-07T19:55:39;99676.66;;;-9.15;59.27
46111;BME280;31849;55.992;37.252;2022-12-07T20:00:45;99669.91;;;-9.26;59.50
46111;BME280;31849;55.992;37.252;2022-12-07T20:05:49;99667.88;;;-9.20;59.50
46111;BME280;31849;55.992;37.252;2022-12-07T20:10:52;99681.56;;;-9.06;59.07
46111;BME280;31849;55.992;37.252;2022-12-07T20:15:57;99678.94;;;-9.18;60.04
46111;BME280;31849;55.992;37.252;2022-12-07T20:21:20;99695.44;;;-9.11;59.74
46111;BME280;31849;55.992;37.252;2022-12-07T20:26:23;99687.88;;;-9.11;60.08
46111;BME280;31849;55.992;37.252;2022-12-07T20:31:28;99684.69;;;-9.09;59.78
46111;BME280;31849;55.992;37.252;2022-12-07T20:36:32;99697.75;;;-9.25;60.14
46111;BME280;31849;55.992;37.252;2022-12-07T20:41:35;99659.88;;;-9.04;59.04
46111;BME280;31849;55.992;37.252;2022-12-07T20:46:59;99655.72;;;-9.04;59.08
46111;BME280;31849;55.992;37.252;2022-12-07T20:52:03;99613.63;;;-9.27;59.86
46111;BME280;31849;55.992;37.252;2022-12-07T20:57:07;99649.44;;;-9.09;60.22
46111;BME280;31849;55.992;37.252;2022-12-07T21:02:12;99642.63;;;-8.99;59.54
46111;BME280;31849;55.992;37.252;2022-12-07T21:07:16;99643.13;;;-9.04;59.32
46111;BME280;31849;55.992;37.252;2022-12-07T21:12:20;99653.50;;;-9.11;60.34
46111;BME280;31849;55.992;37.252;2022-12-07T21:17:25;99640.91;;;-9.11;59.58
46111;BME280;31849;55.992;37.252;2022-12-07T21:22:28;99641.31;;;-8.94;60.00
46111;BME280;31849;55.992;37.252;2022-12-07T21:27:32;99626.88;;;-9.07;60.13
46111;BME280;31849;55.992;37.252;2022-12-07T21:32:37;99618.19;;;-9.00;59.79
46111;BME280;31849;55.992;37.252;2022-12-07T21:37:41;99629.41;;;-9.07;60.36
46111;BME280;31849;55.992;37.252;2022-12-07T21:42:44;99631.34;;;-8.93;59.81
46111;BME280;31849;55.992;37.252;2022-12-07T21:47:49;99621.34;;;-8.81;59.57
46111;BME280;31849;55.992;37.252;2022-12-07T21:52:53;99623.09;;;-8.80;58.71
46111;BME280;31849;55.992;37.252;2022-12-07T21:57:56;99619.09;;;-8.66;59.07
46111;BME280;31849;55.992;37.252;2022-12-07T22:03:01;99626.78;;;-8.87;59.22
46111;BME280;31849;55.992;37.252;2022-12-07T22:08:05;99614.25;;;-8.75;59.36
46111;BME280;31849;55.992;37.252;2022-12-07T22:13:09;99622.66;;;-8.86;59.81
46111;BME280;31849;55.992;37.252;2022-12-07T22:18:14;99603.63;;;-8.71;59.33
46111;BME280;31849;55.992;37.252;2022-12-07T22:23:17;99625.72;;;-9.00;60.42
46111;BME280;31849;55.992;37.252;2022-12-07T22:28:21;99613.03;;;-8.80;59.55
46111;BME280;31849;55.992;37.252;2022-12-07T22:33:26;99607.31;;;-8.77;59.63
46111;BME280;31849;55.992;37.252;2022-12-07T22:38:29;99604.38;;;-8.72;59.94
46111;BME280;31849;55.992;37.252;2022-12-07T22:43:32;99616.34;;;-8.69;59.95
46111;BME280;31849;55.992;37.252;2022-12-07T22:48:37;99616.53;;;-8.78;60.13
46111;BME280;31849;55.992;37.252;2022-12-07T22:53:41;99585.06;;;-8.83;60.53
46111;BME280;31849;55.992;37.252;2022-12-07T22:58:45;99579.25;;;-8.82;60.28
46111;BME280;31849;55.992;37.252;2022-12-07T23:03:50;99594.34;;;-8.60;59.93
46111;BME280;31849;55.992;37.252;2022-12-07T23:08:55;99578.25;;;-8.62;60.45
46111;BME280;31849;55.992;37.252;2022-12-07T23:14:00;99576.25;;;-8.66;61.44
46111;BME280;31849;55.992;37.252;2022-12-07T23:19:07;99587.84;;;-8.46;60.32
46111;BME280;31849;55.992;37.252;2022-12-07T23:24:11;99578.03;;;-8.65;61.22
46111;BME280;31849;55.992;37.252;2022-12-07T23:29:14;99567.78;;;-8.44;61.15
46111;BME280;31849;55.992;37.252;2022-12-07T23:34:20;99568.75;;;-8.31;61.95
46111;BME280;31849;55.992;37.252;2022-12-07T23:39:23;99563.06;;;-8.28;62.04
46111;BME280;31849;55.992;37.252;2022-12-07T23:44:27;99561.41;;;-8.27;62.01
46111;BME280;31849;55.992;37.252;2022-12-07T23:49:32;99555.97;;;-8.10;61.45
46111;BME280;31849;55.992;37.252;2022-12-07T23:54:36;99547.25;;;-8.25;61.98
46111;BME280;31849;55.992;37.252;2022-12-07T23:59:39;99550.03;;;-8.22;61.89
